createdAt,value
2019-01-06T00:01:41.362Z,64.50
2019-01-06T00:07:03.875Z,64.50
2019-01-06T00:12:28.031Z,64.50
2019-01-06T00:17:55.106Z,64.40
2019-01-06T00:23:37.650Z,64.40
2019-01-06T00:29:00.230Z,64.50
2019-01-06T00:34:24.190Z,64.40
2019-01-06T00:40:00.806Z,64.50
2019-01-06T00:45:32.164Z,64.40
2019-01-06T00:50:54.876Z,64.50
2019-01-06T00:56:31.379Z,64.50
2019-01-06T01:01:53.989Z,64.50
2019-01-06T01:07:16.652Z,64.40
2019-01-06T01:12:56.077Z,64.40
2019-01-06T01:18:18.785Z,64.50
2019-01-06T01:23:42.234Z,64.40
2019-01-06T01:29:03.955Z,64.40
2019-01-06T01:34:22.315Z,64.40
2019-01-06T01:39:42.698Z,64.50
2019-01-06T01:45:08.719Z,64.40
2019-01-06T01:50:33.464Z,64.30
2019-01-06T01:56:09.558Z,64.40
2019-01-06T02:01:37.332Z,64.30
2019-01-06T02:07:04.280Z,64.40
2019-01-06T02:12:20.291Z,64.50
2019-01-06T02:17:44.595Z,64.40
2019-01-06T02:23:11.855Z,64.40
2019-01-06T02:28:34.323Z,64.30
2019-01-06T02:33:57.931Z,64.20
2019-01-06T02:39:20.869Z,64.20
2019-01-06T02:44:54.000Z,64.30
2019-01-06T02:50:17.345Z,64.30
2019-01-06T02:55:53.586Z,64.30
2019-01-06T03:01:26.731Z,64.20
2019-01-06T03:06:55.692Z,64.20
2019-01-06T03:12:16.690Z,64.20
2019-01-06T03:17:38.106Z,64.30
2019-01-06T03:23:01.878Z,64.20
2019-01-06T03:28:26.794Z,64.20
2019-01-06T03:33:43.183Z,64.20
2019-01-06T03:39:22.510Z,64.20
2019-01-06T03:44:44.288Z,64.20
2019-01-06T03:50:08.242Z,64.20
2019-01-06T03:55:31.914Z,64.20
2019-01-06T04:00:51.738Z,64.20
2019-01-06T04:06:08.748Z,64.20
2019-01-06T04:11:32.697Z,64.20
2019-01-06T04:16:59.957Z,64.20
2019-01-06T04:22:24.979Z,64.30
2019-01-06T04:27:49.200Z,64.20
2019-01-06T04:33:05.471Z,64.20
2019-01-06T04:38:30.501Z,64.30
2019-01-06T04:43:54.656Z,64.20
2019-01-06T04:49:17.346Z,64.20
2019-01-06T04:54:39.047Z,64.20
2019-01-06T05:00:09.691Z,64.20
2019-01-06T05:05:40.209Z,64.20
2019-01-06T05:11:04.192Z,64.20
2019-01-06T05:16:26.939Z,64.20
2019-01-06T05:22:00.571Z,64.20
2019-01-06T05:27:23.522Z,64.20
2019-01-06T05:32:50.172Z,64.10
2019-01-06T05:38:12.741Z,64.10
2019-01-06T05:43:52.073Z,64.00
2019-01-06T05:49:28.781Z,64.10
2019-01-06T05:55:02.359Z,64.20
2019-01-06T06:00:45.845Z,64.20
2019-01-06T06:06:08.293Z,64.10
2019-01-06T06:11:31.763Z,64.20
2019-01-06T06:16:45.098Z,64.20
2019-01-06T06:22:08.881Z,64.30
2019-01-06T06:27:32.402Z,64.30
2019-01-06T06:32:56.204Z,64.40
2019-01-06T06:38:13.135Z,64.50
2019-01-06T06:43:40.070Z,65.10
2019-01-06T06:49:19.062Z,64.40
2019-01-06T06:54:45.054Z,64.50
2019-01-06T07:01:04.848Z,64.50
2019-01-06T07:06:44.229Z,64.30
2019-01-06T07:12:14.714Z,64.50
2019-01-06T07:18:03.302Z,64.40
2019-01-06T07:23:25.083Z,64.30
2019-01-06T07:28:47.973Z,64.40
2019-01-06T07:34:15.860Z,64.40
2019-01-06T07:39:42.766Z,64.40
2019-01-06T07:45:14.486Z,64.50
2019-01-06T07:50:27.222Z,64.50
2019-01-06T07:55:51.321Z,64.40
2019-01-06T08:01:24.560Z,64.50
2019-01-06T08:07:01.390Z,64.50
2019-01-06T08:12:28.312Z,64.40
2019-01-06T08:17:52.262Z,64.40
2019-01-06T08:23:14.921Z,64.40
2019-01-06T08:28:38.356Z,64.40
2019-01-06T08:34:08.582Z,64.50
2019-01-06T08:39:32.544Z,64.50
2019-01-06T08:45:04.395Z,64.50
2019-01-06T08:50:26.166Z,64.50
2019-01-06T08:55:48.649Z,64.40
2019-01-06T09:01:22.054Z,64.50
2019-01-06T09:07:01.336Z,64.60
2019-01-06T09:12:43.038Z,64.60
2019-01-06T09:18:21.486Z,64.60
2019-01-06T09:24:00.901Z,64.50
2019-01-06T09:29:32.528Z,64.60
2019-01-06T09:35:05.804Z,64.70
2019-01-06T09:40:28.926Z,64.70
2019-01-06T09:46:12.313Z,64.70
2019-01-06T09:51:41.120Z,64.70
2019-01-06T09:57:17.290Z,64.80
2019-01-06T10:02:50.639Z,64.80
2019-01-06T10:08:27.210Z,64.70
2019-01-06T10:13:52.529Z,64.80
2019-01-06T10:19:27.007Z,64.70
2019-01-06T10:24:52.024Z,64.60
2019-01-06T10:30:19.716Z,64.60
2019-01-06T10:35:43.703Z,64.60
2019-01-06T10:41:09.632Z,64.70
2019-01-06T10:46:32.838Z,64.80
2019-01-06T10:52:06.066Z,64.70
2019-01-06T10:57:31.969Z,64.60
2019-01-06T11:03:05.087Z,64.60
2019-01-06T11:08:36.837Z,64.60
2019-01-06T11:14:00.541Z,64.50
2019-01-06T11:19:32.367Z,64.30
2019-01-06T11:24:56.661Z,64.20
2019-01-06T11:30:19.659Z,64.20
2019-01-06T11:35:45.489Z,64.00
2019-01-06T11:41:12.486Z,64.10
2019-01-06T11:46:36.392Z,64.00
2019-01-06T11:51:51.330Z,64.00
2019-01-06T11:57:14.454Z,63.90
2019-01-06T12:02:39.285Z,63.90
2019-01-06T12:08:01.692Z,63.90
2019-01-06T12:13:19.120Z,64.00
2019-01-06T12:18:50.516Z,63.90
2019-01-06T12:24:07.632Z,63.90
2019-01-06T12:29:38.741Z,63.80
2019-01-06T12:35:02.145Z,63.80
2019-01-06T12:40:24.624Z,63.80
2019-01-06T12:45:47.448Z,63.80
2019-01-06T12:51:12.345Z,63.70
2019-01-06T12:56:35.086Z,63.60
2019-01-06T13:01:59.621Z,63.50
2019-01-06T13:07:16.115Z,63.40
2019-01-06T13:12:40.545Z,63.40
2019-01-06T13:18:16.604Z,63.50
2019-01-06T13:23:44.602Z,63.60
2019-01-06T13:29:04.867Z,63.60
2019-01-06T13:34:46.005Z,63.40
2019-01-06T13:40:19.082Z,63.20
2019-01-06T13:46:01.852Z,63.10
2019-01-06T13:51:38.431Z,63.10
2019-01-06T13:57:09.525Z,63.30
2019-01-06T14:02:34.076Z,63.30
2019-01-06T14:07:57.542Z,63.30
2019-01-06T14:13:23.945Z,63.30
2019-01-06T14:18:54.566Z,63.20
2019-01-06T14:24:18.077Z,63.30
2019-01-06T14:29:40.770Z,63.30
2019-01-06T14:35:11.235Z,63.20
2019-01-06T14:40:34.668Z,63.30
2019-01-06T14:46:00.093Z,63.30
2019-01-06T14:51:30.268Z,63.20
2019-01-06T14:56:56.356Z,63.10
2019-01-06T15:02:24.646Z,63.10
2019-01-06T15:07:47.482Z,63.10
2019-01-06T15:13:11.223Z,63.20
2019-01-06T15:18:35.443Z,63.20
2019-01-06T15:24:14.667Z,63.10
2019-01-06T15:29:33.845Z,63.00
2019-01-06T15:35:10.153Z,63.10
2019-01-06T15:40:23.393Z,62.90
2019-01-06T15:45:51.352Z,62.90
2019-01-06T15:51:24.292Z,62.90
2019-01-06T15:56:56.167Z,63.00
2019-01-06T16:02:44.045Z,63.10
2019-01-06T16:08:17.233Z,63.10
2019-01-06T16:13:44.992Z,63.10
2019-01-06T16:19:09.538Z,63.00
2019-01-06T16:24:46.598Z,63.00
2019-01-06T16:30:16.837Z,62.90
2019-01-06T16:35:46.892Z,63.60
2019-01-06T16:41:25.353Z,63.00
2019-01-06T16:46:56.322Z,62.90
2019-01-06T16:52:31.263Z,62.80
2019-01-06T16:58:05.182Z,62.90
2019-01-06T17:03:45.806Z,62.90
2019-01-06T17:09:13.289Z,62.80
2019-01-06T17:14:28.208Z,62.90
2019-01-06T17:20:13.738Z,62.80
2019-01-06T17:25:41.958Z,62.90
2019-01-06T17:31:06.054Z,62.70
2019-01-06T17:36:32.708Z,62.70
2019-01-06T17:41:51.339Z,62.70
2019-01-06T17:47:17.964Z,62.80
2019-01-06T17:52:43.537Z,62.80
2019-01-06T17:58:07.538Z,62.80
2019-01-06T18:03:45.423Z,62.80
2019-01-06T18:09:28.663Z,62.80
2019-01-06T18:14:55.920Z,62.80
2019-01-06T18:20:30.539Z,62.80
2019-01-06T18:25:53.763Z,62.90
2019-01-06T18:31:22.518Z,62.90
2019-01-06T18:36:54.267Z,62.90
2019-01-06T18:42:20.413Z,62.90
2019-01-06T18:48:07.522Z,62.80
2019-01-06T18:53:36.168Z,62.80
2019-01-06T18:59:03.639Z,62.60
2019-01-06T19:04:48.830Z,62.60
2019-01-06T19:10:15.863Z,62.60
2019-01-06T19:15:52.157Z,62.60
2019-01-06T19:21:26.378Z,62.60
2019-01-06T19:26:55.316Z,62.70
2019-01-06T19:32:25.623Z,62.80
2019-01-06T19:37:45.577Z,62.60
2019-01-06T19:43:11.961Z,62.70
2019-01-06T19:48:35.414Z,62.80
2019-01-06T19:53:58.532Z,62.80
2019-01-06T19:59:40.899Z,62.90
2019-01-06T20:05:16.815Z,62.90
2019-01-06T20:10:39.378Z,62.90
2019-01-06T20:16:08.658Z,62.80
2019-01-06T20:21:31.651Z,62.80
2019-01-06T20:26:47.581Z,62.90
2019-01-06T20:32:12.747Z,63.00
2019-01-06T20:37:37.314Z,62.90
2019-01-06T20:43:11.626Z,62.90
2019-01-06T20:48:54.717Z,63.00
2019-01-06T20:54:22.149Z,62.90
2019-01-06T20:59:46.560Z,63.30
2019-01-06T21:05:11.021Z,63.00
2019-01-06T21:10:53.482Z,63.00
2019-01-06T21:16:39.281Z,63.00
2019-01-06T21:22:06.622Z,62.90
2019-01-06T21:27:29.815Z,62.90
2019-01-06T21:33:00.530Z,63.10
2019-01-06T21:38:24.895Z,63.00
2019-01-06T21:43:44.038Z,63.10
2019-01-06T21:49:06.950Z,63.10
2019-01-06T21:54:30.081Z,63.10
2019-01-06T21:59:56.300Z,63.10
2019-01-06T22:05:23.481Z,63.10
2019-01-06T22:10:50.623Z,63.10
2019-01-06T22:16:15.507Z,63.10
2019-01-06T22:21:40.334Z,63.10
2019-01-06T22:27:07.450Z,63.20
2019-01-06T22:32:30.151Z,63.30
2019-01-06T22:38:03.930Z,63.30
2019-01-06T22:43:26.640Z,63.40
2019-01-06T22:48:50.712Z,63.30
2019-01-06T22:54:10.974Z,63.30
2019-01-06T22:59:47.113Z,63.40
2019-01-06T23:05:11.043Z,63.40
2019-01-06T23:10:34.862Z,63.40
2019-01-06T23:15:53.341Z,63.40
2019-01-06T23:21:16.270Z,63.50
2019-01-06T23:26:58.399Z,63.40
2019-01-06T23:32:22.012Z,63.60
2019-01-06T23:37:42.150Z,63.50
2019-01-06T23:43:18.174Z,63.70
2019-01-06T23:48:41.614Z,64.20
2019-01-06T23:54:20.757Z,63.70
2019-01-06T23:59:43.556Z,63.70
